sensor_id;sensor_type;location;lat;lon;timestamp;pressure;altitude;pressure_sealevel;temperature;humidity
56731;BME280;42613;47.424;8.560;2023-05-29T11:57:09;96524.47;;;24.37;35.59
56731;BME280;42613;47.424;8.560;2023-05-29T11:59:34;96531.69;;;24.17;38.82
56731;BME280;42613;47.424;8.560;2023-05-29T12:02:03;96518.16;;;24.02;40.16
56731;BME280;42613;47.424;8.560;2023-05-29T12:04:28;96522.53;;;23.98;40.24
56731;BME280;42613;47.424;8.560;2023-05-29T12:06:54;96539.47;;;23.90;40.77
56731;BME280;42613;47.424;8.560;2023-05-29T12:09:27;96525.34;;;23.88;40.39
56731;BME280;42613;47.424;8.560;2023-05-29T12:12:02;96528.06;;;23.88;41.79
56731;BME280;42613;47.424;8.560;2023-05-29T12:14:28;96527.81;;;23.79;41.22
56731;BME280;42613;47.424;8.560;2023-05-29T12:16:53;96518.56;;;23.75;41.62
56731;BME280;42613;47.424;8.560;2023-05-29T12:19:19;96531.63;;;23.73;42.83
56731;BME280;42613;47.424;8.560;2023-05-29T12:21:44;96515.91;;;23.60;43.82
56731;BME280;42613;47.424;8.560;2023-05-29T12:24:10;96539.56;;;23.59;44.34
56731;BME280;42613;47.424;8.560;2023-05-29T12:26:35;96540.94;;;23.56;45.92
56731;BME280;42613;47.424;8.560;2023-05-29T12:29:04;96531.44;;;23.49;47.13
56731;BME280;42613;47.424;8.560;2023-05-29T12:31:32;96529.00;;;23.47;47.74
56731;BME280;42613;47.424;8.560;2023-05-29T12:34:07;96535.81;;;23.50;48.73
56731;BME280;42613;47.424;8.560;2023-05-29T12:36:32;96520.56;;;23.49;46.79
56731;BME280;42613;47.424;8.560;2023-05-29T12:38:58;96526.81;;;23.49;48.00
56731;BME280;42613;47.424;8.560;2023-05-29T12:41:28;96534.97;;;23.49;47.86
56731;BME280;42613;47.424;8.560;2023-05-29T12:43:57;96537.94;;;23.53;47.86
56731;BME280;42613;47.424;8.560;2023-05-29T12:46:26;96530.38;;;23.50;48.32
56731;BME280;42613;47.424;8.560;2023-05-29T12:48:55;96530.38;;;23.50;47.80
56731;BME280;42613;47.424;8.560;2023-05-29T12:51:25;96532.50;;;23.53;47.74
56731;BME280;42613;47.424;8.560;2023-05-29T12:53:51;96535.78;;;23.55;48.26
56731;BME280;42613;47.424;8.560;2023-05-29T12:56:22;96530.59;;;23.53;47.96
56731;BME280;42613;47.424;8.560;2023-05-29T12:58:50;96533.31;;;23.53;48.23
56731;BME280;42613;47.424;8.560;2023-05-29T13:01:16;96538.50;;;23.60;44.14
56731;BME280;42613;47.424;8.560;2023-05-29T13:03:42;96529.50;;;23.60;47.39
56731;BME280;42613;47.424;8.560;2023-05-29T13:06:07;96531.13;;;23.61;47.01
56731;BME280;42613;47.424;8.560;2023-05-29T13:08:33;96533.59;;;23.62;46.84
56731;BME280;42613;47.424;8.560;2023-05-29T13:10:58;96532.22;;;23.65;46.82
56731;BME280;42613;47.424;8.560;2023-05-29T13:13:24;96544.97;;;23.64;46.81
56731;BME280;42613;47.424;8.560;2023-05-29T13:15:49;96525.97;;;23.59;46.79
56731;BME280;42613;47.424;8.560;2023-05-29T13:18:24;96530.88;;;23.62;46.86
56731;BME280;42613;47.424;8.560;2023-05-29T13:20:52;96527.84;;;23.69;47.74
56731;BME280;42613;47.424;8.560;2023-05-29T13:23:17;96517.50;;;23.71;48.82
56731;BME280;42613;47.424;8.560;2023-05-29T13:25:43;96529.19;;;23.76;48.88
56731;BME280;42613;47.424;8.560;2023-05-29T13:28:08;96534.31;;;23.83;48.64
56731;BME280;42613;47.424;8.560;2023-05-29T13:30:34;96512.00;;;23.81;48.63
56731;BME280;42613;47.424;8.560;2023-05-29T13:32:59;96519.06;;;23.87;47.21
56731;BME280;42613;47.424;8.560;2023-05-29T13:35:24;96530.47;;;23.94;47.63
56731;BME280;42613;47.424;8.560;2023-05-29T13:37:49;96520.97;;;23.92;46.16
56731;BME280;42613;47.424;8.560;2023-05-29T13:40:15;96533.66;;;24.07;40.62
56731;BME280;42613;47.424;8.560;2023-05-29T13:42:40;96520.28;;;24.10;42.87
56731;BME280;42613;47.424;8.560;2023-05-29T13:45:06;96519.75;;;24.13;43.33
56731;BME280;42613;47.424;8.560;2023-05-29T13:47:32;96518.34;;;24.16;43.77
56731;BME280;42613;47.424;8.560;2023-05-29T13:49:58;96509.66;;;24.14;44.31
56731;BME280;42613;47.424;8.560;2023-05-29T13:52:23;96514.53;;;24.17;44.75
56731;BME280;42613;47.424;8.560;2023-05-29T13:54:49;96516.41;;;24.22;44.55
56731;BME280;42613;47.424;8.560;2023-05-29T13:57:15;96513.41;;;24.23;43.84
56731;BME280;42613;47.424;8.560;2023-05-29T13:59:40;96509.59;;;24.24;44.03
56731;BME280;42613;47.424;8.560;2023-05-29T14:02:05;96497.59;;;24.25;44.16
56731;BME280;42613;47.424;8.560;2023-05-29T14:04:33;96511.72;;;24.32;44.53
56731;BME280;42613;47.424;8.560;2023-05-29T14:06:58;96503.25;;;24.34;44.47
56731;BME280;42613;47.424;8.560;2023-05-29T14:09:23;96508.94;;;24.37;43.96
56731;BME280;42613;47.424;8.560;2023-05-29T14:11:56;96488.28;;;24.36;43.94
56731;BME280;42613;47.424;8.560;2023-05-29T14:14:23;96511.34;;;24.44;43.70
56731;BME280;42613;47.424;8.560;2023-05-29T14:16:49;96505.63;;;24.46;43.25
56731;BME280;42613;47.424;8.560;2023-05-29T14:19:15;96494.44;;;24.47;43.39
56731;BME280;42613;47.424;8.560;2023-05-29T14:21:40;96496.06;;;24.48;42.93
56731;BME280;42613;47.424;8.560;2023-05-29T14:24:05;96494.16;;;24.54;42.53
56731;BME280;42613;47.424;8.560;2023-05-29T14:26:32;96492.81;;;24.51;43.11
56731;BME280;42613;47.424;8.560;2023-05-29T14:28:58;96496.28;;;24.57;43.44
56731;BME280;42613;47.424;8.560;2023-05-29T14:31:23;96488.66;;;24.59;43.30
56731;BME280;42613;47.424;8.560;2023-05-29T14:33:49;96484.03;;;24.60;43.21
56731;BME280;42613;47.424;8.560;2023-05-29T14:36:14;96488.63;;;24.64;42.47
56731;BME280;42613;47.424;8.560;2023-05-29T14:38:40;96491.88;;;24.66;42.13
56731;BME280;42613;47.424;8.560;2023-05-29T14:41:06;96494.00;;;24.69;41.46
56731;BME280;42613;47.424;8.560;2023-05-29T14:43:32;96483.97;;;24.65;41.18
56731;BME280;42613;47.424;8.560;2023-05-29T14:45:57;96492.34;;;24.73;41.29
56731;BME280;42613;47.424;8.560;2023-05-29T14:48:22;96476.00;;;24.73;39.33
56731;BME280;42613;47.424;8.560;2023-05-29T14:50:47;96496.88;;;24.83;39.55
56731;BME280;42613;47.424;8.560;2023-05-29T14:53:13;96487.34;;;24.81;38.69
56731;BME280;42613;47.424;8.560;2023-05-29T14:55:38;96485.13;;;24.88;35.58
56731;BME280;42613;47.424;8.560;2023-05-29T14:58:04;96495.97;;;24.93;37.15
56731;BME280;42613;47.424;8.560;2023-05-29T15:00:30;96494.06;;;24.93;36.49
56731;BME280;42613;47.424;8.560;2023-05-29T15:02:56;96487.16;;;25.01;36.18
56731;BME280;42613;47.424;8.560;2023-05-29T15:05:27;96497.78;;;25.03;35.78
56731;BME280;42613;47.424;8.560;2023-05-29T15:07:53;96484.50;;;24.96;36.67
56731;BME280;42613;47.424;8.560;2023-05-29T15:10:22;96490.47;;;24.98;36.85
56731;BME280;42613;47.424;8.560;2023-05-29T15:12:49;96495.94;;;24.98;37.17
56731;BME280;42613;47.424;8.560;2023-05-29T15:15:15;96491.03;;;24.95;37.44
56731;BME280;42613;47.424;8.560;2023-05-29T15:17:40;96495.09;;;24.97;37.96
56731;BME280;42613;47.424;8.560;2023-05-29T15:20:06;96494.94;;;25.13;35.15
56731;BME280;42613;47.424;8.560;2023-05-29T15:22:31;96480.28;;;25.09;35.74
56731;BME280;42613;47.424;8.560;2023-05-29T15:24:56;96487.13;;;25.06;36.09
56731;BME280;42613;47.424;8.560;2023-05-29T15:27:22;96491.19;;;25.09;35.60
56731;BME280;42613;47.424;8.560;2023-05-29T15:29:47;96495.69;;;25.18;30.65
56731;BME280;42613;47.424;8.560;2023-05-29T15:32:12;96496.50;;;25.24;33.99
56731;BME280;42613;47.424;8.560;2023-05-29T15:34:38;96482.84;;;25.24;33.67
56731;BME280;42613;47.424;8.560;2023-05-29T15:37:05;96484.13;;;25.32;33.38
56731;BME280;42613;47.424;8.560;2023-05-29T15:39:31;96490.16;;;25.29;34.09
56731;BME280;42613;47.424;8.560;2023-05-29T15:41:56;96486.34;;;25.30;30.89
56731;BME280;42613;47.424;8.560;2023-05-29T15:44:21;96476.78;;;25.32;33.19
56731;BME280;42613;47.424;8.560;2023-05-29T15:46:46;96487.16;;;25.30;34.01
56731;BME280;42613;47.424;8.560;2023-05-29T15:49:12;96475.53;;;25.44;30.46
56731;BME280;42613;47.424;8.560;2023-05-29T15:51:37;96478.56;;;25.42;32.63
56731;BME280;42613;47.424;8.560;2023-05-29T15:54:06;96471.03;;;25.34;33.53
56731;BME280;42613;47.424;8.560;2023-05-29T15:56:31;96482.22;;;25.32;33.43
56731;BME280;42613;47.424;8.560;2023-05-29T15:58:59;96484.94;;;25.32;33.75
56731;BME280;42613;47.424;8.560;2023-05-29T16:01:25;96479.53;;;25.27;33.91
56731;BME280;42613;47.424;8.560;2023-05-29T16:03:50;96482.06;;;25.24;34.38
56731;BME280;42613;47.424;8.560;2023-05-29T16:06:15;96483.19;;;25.17;34.94
56731;BME280;42613;47.424;8.560;2023-05-29T16:08:44;96478.44;;;25.28;32.68
56731;BME280;42613;47.424;8.560;2023-05-29T16:11:09;96467.81;;;25.27;33.87
56731;BME280;42613;47.424;8.560;2023-05-29T16:13:34;96467.31;;;25.25;33.92
56731;BME280;42613;47.424;8.560;2023-05-29T16:16:00;96472.25;;;25.23;33.92
56731;BME280;42613;47.424;8.560;2023-05-29T16:18:27;96480.16;;;25.19;34.38
56731;BME280;42613;47.424;8.560;2023-05-29T16:20:52;96475.81;;;25.18;35.03
56731;BME280;42613;47.424;8.560;2023-05-29T16:23:19;96474.47;;;25.15;35.04
56731;BME280;42613;47.424;8.560;2023-05-29T16:25:44;96476.91;;;25.17;31.68
56731;BME280;42613;47.424;8.560;2023-05-29T16:28:10;96471.34;;;25.27;31.83
56731;BME280;42613;47.424;8.560;2023-05-29T16:30:35;96471.88;;;25.29;30.61
56731;BME280;42613;47.424;8.560;2023-05-29T16:33:02;96473.75;;;25.34;30.26
56731;BME280;42613;47.424;8.560;2023-05-29T16:35:27;96484.31;;;25.41;30.16
56731;BME280;42613;47.424;8.560;2023-05-29T16:37:53;96481.34;;;25.37;31.30
56731;BME280;42613;47.424;8.560;2023-05-29T16:40:18;96483.03;;;25.33;31.69
56731;BME280;42613;47.424;8.560;2023-05-29T16:42:45;96472.19;;;25.28;31.20
56731;BME280;42613;47.424;8.560;2023-05-29T16:45:11;96480.97;;;25.19;37.36
56731;BME280;42613;47.424;8.560;2023-05-29T16:47:37;96471.94;;;25.00;38.02
56731;BME280;42613;47.424;8.560;2023-05-29T16:50:02;96476.44;;;24.86;37.97
56731;BME280;42613;47.424;8.560;2023-05-29T16:52:28;96471.59;;;24.77;38.16
56731;BME280;42613;47.424;8.560;2023-05-29T16:54:53;96477.91;;;24.73;39.39
56731;BME280;42613;47.424;8.560;2023-05-29T16:57:21;96481.19;;;24.70;39.21
56731;BME280;42613;47.424;8.560;2023-05-29T16:59:47;96483.41;;;24.68;39.60
56731;BME280;42613;47.424;8.560;2023-05-29T17:02:12;96474.66;;;24.36;44.23
56731;BME280;42613;47.424;8.560;2023-05-29T17:04:43;96472.00;;;23.92;47.62
56731;BME280;42613;47.424;8.560;2023-05-29T17:07:09;96474.25;;;23.80;50.31
56731;BME280;42613;47.424;8.560;2023-05-29T17:09:37;96480.78;;;23.68;56.66
56731;BME280;42613;47.424;8.560;2023-05-29T17:12:05;96480.06;;;23.47;54.96
56731;BME280;42613;47.424;8.560;2023-05-29T17:14:32;96482.66;;;23.18;57.12
56731;BME280;42613;47.424;8.560;2023-05-29T17:16:57;96487.56;;;23.01;58.57
56731;BME280;42613;47.424;8.560;2023-05-29T17:19:22;96483.50;;;22.83;60.09
56731;BME280;42613;47.424;8.560;2023-05-29T17:21:48;96490.88;;;22.51;60.94
56731;BME280;42613;47.424;8.560;2023-05-29T17:24:13;96491.13;;;22.34;60.91
56731;BME280;42613;47.424;8.560;2023-05-29T17:26:41;96493.56;;;22.21;63.97
56731;BME280;42613;47.424;8.560;2023-05-29T17:29:07;96493.81;;;22.09;62.90
56731;BME280;42613;47.424;8.560;2023-05-29T17:31:32;96496.00;;;22.12;61.51
56731;BME280;42613;47.424;8.560;2023-05-29T17:33:58;96498.41;;;22.03;62.39
56731;BME280;42613;47.424;8.560;2023-05-29T17:36:23;96513.88;;;21.98;62.41
56731;BME280;42613;47.424;8.560;2023-05-29T17:38:48;96504.09;;;21.91;62.99
56731;BME280;42613;47.424;8.560;2023-05-29T17:41:15;96507.59;;;21.87;63.77
56731;BME280;42613;47.424;8.560;2023-05-29T17:43:40;96507.06;;;21.85;62.61
56731;BME280;42613;47.424;8.560;2023-05-29T17:46:05;96517.91;;;21.85;63.52
56731;BME280;42613;47.424;8.560;2023-05-29T17:48:30;96508.41;;;21.87;66.00
56731;BME280;42613;47.424;8.560;2023-05-29T17:50:56;96508.97;;;21.89;66.61
56731;BME280;42613;47.424;8.560;2023-05-29T17:53:22;96508.41;;;21.87;66.04
56731;BME280;42613;47.424;8.560;2023-05-29T17:55:47;96511.94;;;21.83;64.80
56731;BME280;42613;47.424;8.560;2023-05-29T17:58:12;96522.22;;;21.86;64.59
56731;BME280;42613;47.424;8.560;2023-05-29T18:00:38;96520.06;;;21.83;63.56
56731;BME280;42613;47.424;8.560;2023-05-29T18:03:11;96514.34;;;21.79;63.28
56731;BME280;42613;47.424;8.560;2023-05-29T18:05:37;96517.06;;;21.79;63.21
56731;BME280;42613;47.424;8.560;2023-05-29T18:08:03;96520.03;;;21.78;64.63
56731;BME280;42613;47.424;8.560;2023-05-29T18:10:30;96519.78;;;21.74;65.86
56731;BME280;42613;47.424;8.560;2023-05-29T18:12:56;96526.00;;;21.74;65.58
56731;BME280;42613;47.424;8.560;2023-05-29T18:15:21;96529.25;;;21.77;64.00
56731;BME280;42613;47.424;8.560;2023-05-29T18:17:47;96526.81;;;21.75;63.23
56731;BME280;42613;47.424;8.560;2023-05-29T18:20:12;96529.25;;;21.77;63.47
56731;BME280;42613;47.424;8.560;2023-05-29T18:22:38;96532.50;;;21.73;61.90
56731;BME280;42613;47.424;8.560;2023-05-29T18:25:07;96528.97;;;21.73;62.95
56731;BME280;42613;47.424;8.560;2023-05-29T18:27:33;96538.72;;;21.69;62.93
56731;BME280;42613;47.424;8.560;2023-05-29T18:29:58;96530.59;;;21.69;62.38
56731;BME280;42613;47.424;8.560;2023-05-29T18:32:32;96535.19;;;21.68;61.88
56731;BME280;42613;47.424;8.560;2023-05-29T18:35:01;96534.91;;;21.65;61.95
56731;BME280;42613;47.424;8.560;2023-05-29T18:37:27;96535.72;;;21.60;61.31
56731;BME280;42613;47.424;8.560;2023-05-29T18:39:52;96531.94;;;21.71;60.40
56731;BME280;42613;47.424;8.560;2023-05-29T18:42:17;96531.69;;;21.68;61.05
56731;BME280;42613;47.424;8.560;2023-05-29T18:44:43;96543.13;;;21.85;60.96
56731;BME280;42613;47.424;8.560;2023-05-29T18:47:08;96542.00;;;21.81;60.81
56731;BME280;42613;47.424;8.560;2023-05-29T18:49:36;96551.50;;;21.84;60.40
56731;BME280;42613;47.424;8.560;2023-05-29T18:52:01;96547.41;;;21.71;59.58
56731;BME280;42613;47.424;8.560;2023-05-29T18:54:28;96540.34;;;21.70;61.03
56731;BME280;42613;47.424;8.560;2023-05-29T18:56:54;96545.78;;;21.70;58.90
56731;BME280;42613;47.424;8.560;2023-05-29T18:59:20;96543.59;;;21.62;59.01
56731;BME280;42613;47.424;8.560;2023-05-29T19:01:45;96555.78;;;21.59;58.49
56731;BME280;42613;47.424;8.560;2023-05-29T19:04:10;96544.94;;;21.59;58.26
56731;BME280;42613;47.424;8.560;2023-05-29T19:06:36;96540.03;;;21.56;58.23
56731;BME280;42613;47.424;8.560;2023-05-29T19:09:02;96549.59;;;21.84;53.36
56731;BME280;42613;47.424;8.560;2023-05-29T19:11:29;96549.66;;;22.05;47.29
56731;BME280;42613;47.424;8.560;2023-05-29T19:13:55;96554.03;;;22.06;42.67
56731;BME280;42613;47.424;8.560;2023-05-29T19:16:20;96535.81;;;21.96;41.35
56731;BME280;42613;47.424;8.560;2023-05-29T19:18:46;96543.16;;;21.95;40.57
56731;BME280;42613;47.424;8.560;2023-05-29T19:21:12;96566.22;;;22.08;40.33
56731;BME280;42613;47.424;8.560;2023-05-29T19:23:37;96562.13;;;22.01;39.73
56731;BME280;42613;47.424;8.560;2023-05-29T19:26:03;96558.59;;;21.95;39.08
56731;BME280;42613;47.424;8.560;2023-05-29T19:28:29;96579.50;;;22.05;39.28
56731;BME280;42613;47.424;8.560;2023-05-29T19:30:56;96587.91;;;22.03;39.00
56731;BME280;42613;47.424;8.560;2023-05-29T19:33:21;96569.47;;;21.95;38.45
56731;BME280;42613;47.424;8.560;2023-05-29T19:35:47;96581.66;;;21.98;38.41
56731;BME280;42613;47.424;8.560;2023-05-29T19:38:13;96584.34;;;21.92;38.11
56731;BME280;42613;47.424;8.560;2023-05-29T19:40:38;96594.41;;;21.97;38.23
56731;BME280;42613;47.424;8.560;2023-05-29T19:43:04;96590.06;;;21.91;37.54
56731;BME280;42613;47.424;8.560;2023-05-29T19:45:30;96603.88;;;21.89;37.82
56731;BME280;42613;47.424;8.560;2023-05-29T19:47:55;96608.19;;;21.90;38.03
56731;BME280;42613;47.424;8.560;2023-05-29T19:50:20;96593.81;;;21.85;37.74
56731;BME280;42613;47.424;8.560;2023-05-29T19:52:47;96586.44;;;21.75;37.66
56731;BME280;42613;47.424;8.560;2023-05-29T19:55:13;96601.66;;;21.76;37.46
56731;BME280;42613;47.424;8.560;2023-05-29T19:57:39;96611.69;;;21.81;37.29
56731;BME280;42613;47.424;8.560;2023-05-29T20:00:05;96601.91;;;21.74;37.21
56731;BME280;42613;47.424;8.560;2023-05-29T20:02:31;96618.16;;;21.74;37.08
56731;BME280;42613;47.424;8.560;2023-05-29T20:05:00;96614.34;;;21.70;37.18
56731;BME280;42613;47.424;8.560;2023-05-29T20:07:25;96599.13;;;21.59;37.03
56731;BME280;42613;47.424;8.560;2023-05-29T20:09:51;96621.94;;;21.68;37.31
56731;BME280;42613;47.424;8.560;2023-05-29T20:12:16;96605.88;;;21.57;36.85
56731;BME280;42613;47.424;8.560;2023-05-29T20:14:42;96625.41;;;21.59;36.93
56731;BME280;42613;47.424;8.560;2023-05-29T20:17:07;96598.19;;;21.38;37.07
56731;BME280;42613;47.424;8.560;2023-05-29T20:19:33;96603.06;;;21.41;37.04
56731;BME280;42613;47.424;8.560;2023-05-29T20:21:58;96615.84;;;21.46;36.62
56731;BME280;42613;47.424;8.560;2023-05-29T20:24:24;96628.09;;;21.53;36.72
56731;BME280;42613;47.424;8.560;2023-05-29T20:26:49;96618.28;;;21.42;36.48
56731;BME280;42613;47.424;8.560;2023-05-29T20:29:16;96633.19;;;21.45;36.34
56731;BME280;42613;47.424;8.560;2023-05-29T20:31:42;96602.16;;;21.25;36.37
56731;BME280;42613;47.424;8.560;2023-05-29T20:34:07;96602.16;;;21.25;36.56
56731;BME280;42613;47.424;8.560;2023-05-29T20:36:32;96621.44;;;21.34;36.25
56731;BME280;42613;47.424;8.560;2023-05-29T20:39:00;96612.69;;;21.22;36.51
56731;BME280;42613;47.424;8.560;2023-05-29T20:41:29;96643.13;;;21.34;36.41
56731;BME280;42613;47.424;8.560;2023-05-29T20:43:55;96625.69;;;21.25;36.51
56731;BME280;42613;47.424;8.560;2023-05-29T20:46:20;96628.97;;;21.27;36.75
56731;BME280;42613;47.424;8.560;2023-05-29T20:48:48;96637.38;;;21.25;36.28
56731;BME280;42613;47.424;8.560;2023-05-29T20:51:13;96606.66;;;21.09;36.49
56731;BME280;42613;47.424;8.560;2023-05-29T20:53:39;96644.66;;;21.25;36.45
56731;BME280;42613;47.424;8.560;2023-05-29T20:56:07;96622.09;;;21.14;36.41
56731;BME280;42613;47.424;8.560;2023-05-29T20:58:36;96648.47;;;21.24;36.42
56731;BME280;42613;47.424;8.560;2023-05-29T21:01:03;96638.13;;;21.21;36.30
56731;BME280;42613;47.424;8.560;2023-05-29T21:03:32;96633.47;;;21.11;36.54
56731;BME280;42613;47.424;8.560;2023-05-29T21:05:57;96614.69;;;20.99;36.66
56731;BME280;42613;47.424;8.560;2023-05-29T21:08:25;96624.97;;;20.97;36.42
56731;BME280;42613;47.424;8.560;2023-05-29T21:10:51;96651.31;;;21.07;36.87
56731;BME280;42613;47.424;8.560;2023-05-29T21:13:17;96640.38;;;20.91;36.51
56731;BME280;42613;47.424;8.560;2023-05-29T21:15:42;96638.69;;;20.85;36.46
56731;BME280;42613;47.424;8.560;2023-05-29T21:18:10;96632.72;;;20.83;36.74
56731;BME280;42613;47.424;8.560;2023-05-29T21:20:36;96649.31;;;20.92;36.38
56731;BME280;42613;47.424;8.560;2023-05-29T21:23:04;96620.16;;;20.72;36.57
56731;BME280;42613;47.424;8.560;2023-05-29T21:25:32;96639.19;;;20.82;36.63
56731;BME280;42613;47.424;8.560;2023-05-29T21:27:58;96624.44;;;20.68;36.56
56731;BME280;42613;47.424;8.560;2023-05-29T21:30:24;96635.56;;;20.71;36.48
56731;BME280;42613;47.424;8.560;2023-05-29T21:32:50;96648.81;;;20.68;36.79
56731;BME280;42613;47.424;8.560;2023-05-29T21:35:19;96611.56;;;20.53;37.19
56731;BME280;42613;47.424;8.560;2023-05-29T21:37:48;96649.56;;;20.63;37.31
56731;BME280;42613;47.424;8.560;2023-05-29T21:40:25;96619.53;;;20.38;37.56
56731;BME280;42613;47.424;8.560;2023-05-29T21:45:57;96655.00;;;20.41;37.83
56731;BME280;42613;47.424;8.560;2023-05-29T21:48:59;96648.78;;;20.41;38.09
56731;BME280;42613;47.424;8.560;2023-05-29T21:51:49;96665.53;;;20.38;38.55
56731;BME280;42613;47.424;8.560;2023-05-29T22:00:33;96655.41;;;20.28;39.34
56731;BME280;42613;47.424;8.560;2023-05-29T22:03:18;96640.41;;;20.15;39.18
56731;BME280;42613;47.424;8.560;2023-05-29T22:05:49;96667.28;;;20.27;39.30
56731;BME280;42613;47.424;8.560;2023-05-29T22:08:20;96662.22;;;20.30;39.50
56731;BME280;42613;47.424;8.560;2023-05-29T22:11:16;96668.22;;;20.38;39.61
56731;BME280;42613;47.424;8.560;2023-05-29T22:14:12;96667.72;;;20.41;39.39
56731;BME280;42613;47.424;8.560;2023-05-29T22:16:54;96643.28;;;20.30;39.59
56731;BME280;42613;47.424;8.560;2023-05-29T22:19:28;96665.84;;;20.41;39.83
56731;BME280;42613;47.424;8.560;2023-05-29T22:22:14;96657.16;;;20.39;39.74
56731;BME280;42613;47.424;8.560;2023-05-29T22:25:14;96648.44;;;20.32;39.19
56731;BME280;42613;47.424;8.560;2023-05-29T22:28:05;96651.22;;;20.15;39.31
56731;BME280;42613;47.424;8.560;2023-05-29T22:30:40;96634.75;;;19.95;39.39
56731;BME280;42613;47.424;8.560;2023-05-29T22:33:18;96646.31;;;20.12;39.67
56731;BME280;42613;47.424;8.560;2023-05-29T22:36:08;96641.34;;;20.04;39.82
56731;BME280;42613;47.424;8.560;2023-05-29T22:39:00;96628.09;;;19.80;40.00
56731;BME280;42613;47.424;8.560;2023-05-29T22:41:41;96641.16;;;19.88;40.34
56731;BME280;42613;47.424;8.560;2023-05-29T22:44:30;96633.72;;;19.79;41.18
56731;BME280;42613;47.424;8.560;2023-05-29T22:47:21;96634.50;;;19.74;42.00
56731;BME280;42613;47.424;8.560;2023-05-29T22:49:54;96658.44;;;19.87;42.53
56731;BME280;42613;47.424;8.560;2023-05-29T22:52:41;96654.31;;;19.80;43.57
56731;BME280;42613;47.424;8.560;2023-05-29T22:55:27;96633.47;;;19.58;43.51
56731;BME280;42613;47.424;8.560;2023-05-29T22:58:06;96632.03;;;19.56;42.96
56731;BME280;42613;47.424;8.560;2023-05-29T23:00:37;96661.19;;;19.70;42.57
56731;BME280;42613;47.424;8.560;2023-05-29T23:03:09;96642.13;;;19.60;42.40
56731;BME280;42613;47.424;8.560;2023-05-29T23:05:42;96639.66;;;19.59;42.14
56731;BME280;42613;47.424;8.560;2023-05-29T23:08:33;96633.69;;;19.57;42.28
56731;BME280;42613;47.424;8.560;2023-05-29T23:11:07;96643.41;;;19.58;42.24
56731;BME280;42613;47.424;8.560;2023-05-29T23:14:22;96655.31;;;19.57;42.22
56731;BME280;42613;47.424;8.560;2023-05-29T23:17:26;96661.63;;;19.62;41.79
56731;BME280;42613;47.424;8.560;2023-05-29T23:20:26;96632.41;;;19.42;41.86
56731;BME280;42613;47.424;8.560;2023-05-29T23:22:54;96645.50;;;19.50;42.01
56731;BME280;42613;47.424;8.560;2023-05-29T23:25:38;96652.22;;;19.48;42.25
56731;BME280;42613;47.424;8.560;2023-05-29T23:28:16;96657.63;;;19.48;42.23
56731;BME280;42613;47.424;8.560;2023-05-29T23:31:25;96628.28;;;19.35;42.63
56731;BME280;42613;47.424;8.560;2023-05-29T23:34:36;96652.66;;;19.62;42.76
56731;BME280;42613;47.424;8.560;2023-05-29T23:37:33;96627.16;;;19.52;42.80
56731;BME280;42613;47.424;8.560;2023-05-29T23:40:10;96622.31;;;19.55;42.82
56731;BME280;42613;47.424;8.560;2023-05-29T23:42:46;96627.78;;;19.60;42.61
56731;BME280;42613;47.424;8.560;2023-05-29T23:45:52;96642.28;;;19.70;41.98
56731;BME280;42613;47.424;8.560;2023-05-29T23:48:31;96643.00;;;19.66;42.11
56731;BME280;42613;47.424;8.560;2023-05-29T23:51:07;96634.50;;;19.57;41.89
56731;BME280;42613;47.424;8.560;2023-05-29T23:53:49;96641.81;;;19.57;41.64
56731;BME280;42613;47.424;8.560;2023-05-29T23:56:42;96650.00;;;19.45;41.80
56731;BME280;42613;47.424;8.560;2023-05-29T23:59:10;96654.34;;;19.46;41.26
